createdAt,value
2023-05-05T00:02:07.548Z,99905.28
2023-05-05T00:04:34.890Z,99908.91
2023-05-05T00:07:02.252Z,99915.16
2023-05-05T00:09:29.508Z,99908.56
2023-05-05T00:11:56.852Z,99910.72
2023-05-05T00:14:23.853Z,99911.31
2023-05-05T00:16:51.199Z,99902.00
2023-05-05T00:19:18.338Z,99907.69
2023-05-05T00:21:45.683Z,99916.13
2023-05-05T00:24:12.999Z,99914.44
2023-05-05T00:26:40.008Z,99915.44
2023-05-05T00:29:07.926Z,99917.56
2023-05-05T00:31:35.377Z,99914.22
2023-05-05T00:34:02.817Z,99916.19
2023-05-05T00:36:30.212Z,99909.22
2023-05-05T00:38:58.054Z,99910.41
2023-05-05T00:41:25.156Z,99902.31
2023-05-05T00:43:52.357Z,99898.13
2023-05-05T00:46:26.861Z,99897.91
2023-05-05T00:48:54.545Z,99905.69
2023-05-05T00:51:22.525Z,99909.19
2023-05-05T00:53:50.364Z,99909.72
2023-05-05T00:56:18.227Z,99911.72
2023-05-05T00:58:45.921Z,99902.47
2023-05-05T01:01:13.409Z,99896.94
2023-05-05T01:03:44.002Z,99899.59
2023-05-05T01:06:23.605Z,99896.78
2023-05-05T01:09:22.734Z,99899.03
2023-05-05T01:12:45.198Z,99893.47
2023-05-05T01:15:21.039Z,99893.28
2023-05-05T01:18:19.984Z,99891.94
2023-05-05T01:21:06.608Z,99898.28
2023-05-05T01:23:46.093Z,99892.53
2023-05-05T01:26:32.072Z,99888.69
2023-05-05T01:29:17.452Z,99891.03
2023-05-05T01:31:54.924Z,99882.34
2023-05-05T01:34:28.210Z,99880.56
2023-05-05T01:37:12.565Z,99884.81
2023-05-05T01:39:40.631Z,99879.31
2023-05-05T01:42:09.290Z,99878.59
2023-05-05T01:44:37.088Z,99875.22
2023-05-05T01:47:04.576Z,99869.44
2023-05-05T01:49:32.014Z,99866.56
2023-05-05T01:51:59.385Z,99863.81
2023-05-05T01:54:28.269Z,99860.59
2023-05-05T01:56:56.487Z,99858.34
2023-05-05T01:59:24.157Z,99860.09
2023-05-05T02:01:52.147Z,99861.47
2023-05-05T02:04:22.257Z,99860.66
2023-05-05T02:06:51.214Z,99865.38
2023-05-05T02:09:18.566Z,99864.44
2023-05-05T02:11:45.622Z,99862.81
2023-05-05T02:14:13.108Z,99856.53
2023-05-05T02:16:41.056Z,99854.41
2023-05-05T02:19:08.203Z,99853.25
2023-05-05T02:21:35.283Z,99853.34
2023-05-05T02:24:02.698Z,99850.69
2023-05-05T02:26:30.077Z,99845.75
2023-05-05T02:29:04.507Z,99841.09
2023-05-05T02:31:31.841Z,99836.53
2023-05-05T02:34:01.189Z,99847.31
2023-05-05T02:36:33.564Z,99849.13
2023-05-05T02:39:07.248Z,99853.41
2023-05-05T02:41:38.480Z,99844.53
2023-05-05T02:44:12.378Z,99846.13
2023-05-05T02:46:40.853Z,99837.47
2023-05-05T02:49:07.964Z,99839.09
2023-05-05T02:51:37.381Z,99835.97
2023-05-05T02:54:09.764Z,99833.09
2023-05-05T02:56:48.337Z,99846.25
2023-05-05T02:59:18.508Z,99837.06
2023-05-05T03:02:03.610Z,99842.75
2023-05-05T03:04:43.351Z,99839.63
2023-05-05T03:07:14.025Z,99834.28
2023-05-05T03:10:12.523Z,99829.41
2023-05-05T03:12:59.071Z,99833.50
2023-05-05T03:15:47.227Z,99824.88
2023-05-05T03:18:17.371Z,99828.56
2023-05-05T03:20:49.017Z,99826.91
2023-05-05T03:23:22.730Z,99826.91
2023-05-05T03:25:55.131Z,99820.28
2023-05-05T03:28:39.246Z,99813.69
2023-05-05T03:31:28.469Z,99822.75
2023-05-05T03:33:59.136Z,99815.59
2023-05-05T03:36:31.848Z,99817.53
2023-05-05T03:39:00.098Z,99821.66
2023-05-05T03:41:31.061Z,99813.09
2023-05-05T03:43:58.302Z,99811.72
2023-05-05T03:46:26.609Z,99805.69
2023-05-05T03:48:56.754Z,99809.25
2023-05-05T03:51:25.623Z,99810.84
2023-05-05T03:53:53.414Z,99798.78
2023-05-05T03:56:21.226Z,99797.16
2023-05-05T03:58:48.266Z,99800.41
2023-05-05T04:01:15.624Z,99795.72
2023-05-05T04:03:42.986Z,99796.78
2023-05-05T04:06:10.301Z,99794.28
2023-05-05T04:08:38.103Z,99799.25
2023-05-05T04:11:05.599Z,99794.25
2023-05-05T04:13:34.284Z,99792.66
2023-05-05T04:16:02.885Z,99797.06
2023-05-05T04:18:29.974Z,99789.34
2023-05-05T04:20:57.462Z,99781.66
2023-05-05T04:23:25.009Z,99785.78
2023-05-05T04:25:52.280Z,99779.13
2023-05-05T04:28:21.610Z,99772.53
2023-05-05T04:30:49.413Z,99768.41
2023-05-05T04:33:16.956Z,99766.22
2023-05-05T04:35:45.940Z,99763.69
2023-05-05T04:38:13.612Z,99765.00
2023-05-05T04:40:41.237Z,99765.75
2023-05-05T04:43:09.757Z,99755.81
2023-05-05T04:45:37.234Z,99749.44
2023-05-05T04:48:06.057Z,99751.25
2023-05-05T04:50:33.444Z,99740.53
2023-05-05T04:53:01.061Z,99746.22
2023-05-05T04:55:28.581Z,99749.19
2023-05-05T04:57:55.586Z,99746.63
2023-05-05T05:00:23.968Z,99748.66
2023-05-05T05:02:52.886Z,99733.16
2023-05-05T05:05:21.334Z,99742.94
2023-05-05T05:07:48.373Z,99734.88
2023-05-05T05:10:15.614Z,99740.84
2023-05-05T05:12:43.676Z,99730.81
2023-05-05T05:15:11.385Z,99736.00
2023-05-05T05:17:39.194Z,99731.78
2023-05-05T05:20:10.191Z,99727.75
2023-05-05T05:22:38.983Z,99728.28
2023-05-05T05:25:10.769Z,99727.84
2023-05-05T05:27:38.719Z,99728.09
2023-05-05T05:30:07.084Z,99719.88
2023-05-05T05:32:35.393Z,99721.97
2023-05-05T05:35:03.442Z,99717.63
2023-05-05T05:37:31.376Z,99708.53
2023-05-05T05:39:59.778Z,99713.75
2023-05-05T05:42:29.839Z,99703.56
2023-05-05T05:44:58.754Z,99712.34
2023-05-05T05:47:26.615Z,99704.59
2023-05-05T05:49:55.870Z,99698.47
2023-05-05T05:52:23.076Z,99695.22
2023-05-05T05:54:50.955Z,99703.94
2023-05-05T05:57:18.774Z,99701.47
2023-05-05T05:59:46.151Z,99694.00
2023-05-05T06:02:14.062Z,99696.16
2023-05-05T06:04:41.728Z,99683.25
2023-05-05T06:07:10.552Z,99671.00
2023-05-05T06:09:41.470Z,99676.69
2023-05-05T06:12:09.192Z,99678.25
2023-05-05T06:14:36.657Z,99669.22
2023-05-05T06:17:03.914Z,99673.84
2023-05-05T06:19:34.101Z,99671.50
2023-05-05T06:22:01.772Z,99680.09
2023-05-05T06:24:29.007Z,99677.28
2023-05-05T06:26:57.496Z,99679.63
2023-05-05T06:29:25.885Z,99675.44
2023-05-05T06:31:53.025Z,99672.84
2023-05-05T06:34:20.548Z,99671.69
2023-05-05T06:36:47.884Z,99660.63
2023-05-05T06:39:16.147Z,99672.81
2023-05-05T06:41:43.672Z,99660.84
2023-05-05T06:44:11.449Z,99665.00
2023-05-05T06:46:38.889Z,99658.44
2023-05-05T06:49:06.438Z,99655.81
2023-05-05T06:51:33.949Z,99656.47
2023-05-05T06:54:01.094Z,99653.94
2023-05-05T06:56:28.624Z,99654.50
2023-05-05T06:58:55.659Z,99653.41
2023-05-05T07:01:23.341Z,99640.56
2023-05-05T07:03:52.045Z,99638.59
2023-05-05T07:06:19.061Z,99647.78
2023-05-05T07:08:46.956Z,99637.31
2023-05-05T07:11:14.619Z,99634.25
2023-05-05T07:13:42.317Z,99637.03
2023-05-05T07:16:09.794Z,99630.34
2023-05-05T07:18:36.997Z,99632.00
2023-05-05T07:21:06.354Z,99619.88
2023-05-05T07:23:34.050Z,99625.09
2023-05-05T07:26:01.678Z,99620.69
2023-05-05T07:28:29.055Z,99618.38
2023-05-05T07:30:56.420Z,99620.22
2023-05-05T07:33:23.466Z,99613.13
2023-05-05T07:35:50.759Z,99606.06
2023-05-05T07:38:18.474Z,99594.56
2023-05-05T07:40:46.268Z,99591.81
2023-05-05T07:43:13.747Z,99599.81
2023-05-05T07:45:41.451Z,99600.72
2023-05-05T07:48:08.961Z,99594.63
2023-05-05T07:50:35.998Z,99600.00
2023-05-05T07:53:13.585Z,99596.34
2023-05-05T07:55:41.992Z,99593.38
2023-05-05T07:58:11.152Z,99594.28
2023-05-05T08:00:38.740Z,99584.56
2023-05-05T08:03:07.158Z,99575.63
2023-05-05T08:05:36.963Z,99577.34
2023-05-05T08:08:05.874Z,99572.47
2023-05-05T08:10:33.279Z,99580.22
2023-05-05T08:13:00.649Z,99575.56
2023-05-05T08:15:27.829Z,99572.91
2023-05-05T08:17:57.910Z,99576.53
2023-05-05T08:20:28.467Z,99577.88
2023-05-05T08:22:55.972Z,99572.19
2023-05-05T08:25:23.299Z,99574.44
2023-05-05T08:27:50.844Z,99570.34
2023-05-05T08:30:27.616Z,99560.50
2023-05-05T08:32:54.979Z,99553.59
2023-05-05T08:35:22.578Z,99552.41
2023-05-05T08:37:51.666Z,99544.72
2023-05-05T08:40:20.521Z,99540.06
2023-05-05T08:42:48.030Z,99547.19
2023-05-05T08:45:15.889Z,99539.25
2023-05-05T08:47:43.617Z,99537.19
2023-05-05T08:50:11.795Z,99535.16
2023-05-05T08:52:40.721Z,99533.00
2023-05-05T08:55:24.414Z,99531.97
2023-05-05T08:57:54.487Z,99527.66
2023-05-05T09:00:22.116Z,99526.09
2023-05-05T09:02:49.350Z,99524.19
2023-05-05T09:05:17.810Z,99525.56
2023-05-05T09:07:45.288Z,99536.81
2023-05-05T09:10:12.808Z,99526.63
2023-05-05T09:12:43.156Z,99524.09
2023-05-05T09:15:14.240Z,99518.31
2023-05-05T09:17:41.525Z,99518.53
2023-05-05T09:20:10.609Z,99513.56
2023-05-05T09:22:44.772Z,99519.31
2023-05-05T09:25:13.839Z,99506.44
2023-05-05T09:27:42.659Z,99511.88
2023-05-05T09:30:14.150Z,99513.22
2023-05-05T09:32:48.652Z,99502.16
2023-05-05T09:35:16.167Z,99505.38
2023-05-05T09:37:43.268Z,99496.63
2023-05-05T09:40:12.512Z,99495.44
2023-05-05T09:42:39.925Z,99498.97
2023-05-05T09:45:19.100Z,99500.88
2023-05-05T09:47:46.976Z,99494.59
2023-05-05T09:50:15.651Z,99497.31
2023-05-05T09:52:43.256Z,99499.53
2023-05-05T09:55:19.520Z,99495.44
2023-05-05T09:57:47.180Z,99494.94
2023-05-05T10:00:14.829Z,99498.81
2023-05-05T10:02:42.198Z,99495.81
2023-05-05T10:05:16.952Z,99490.66
2023-05-05T10:07:45.394Z,99489.81
2023-05-05T10:10:16.581Z,99498.56
2023-05-05T10:12:45.857Z,99491.19
2023-05-05T10:15:13.961Z,99488.69
2023-05-05T10:18:05.252Z,99487.31
2023-05-05T10:20:36.271Z,99490.28
2023-05-05T10:23:03.516Z,99495.81
2023-05-05T10:25:33.836Z,99492.59
2023-05-05T10:28:01.459Z,99490.81
2023-05-05T10:30:32.240Z,99491.50
2023-05-05T10:33:30.310Z,99491.41
2023-05-05T10:36:01.048Z,99486.00
2023-05-05T10:38:30.551Z,99491.47
2023-05-05T10:40:59.352Z,99493.94
2023-05-05T10:43:28.016Z,99483.53
2023-05-05T10:45:55.681Z,99487.13
2023-05-05T10:48:35.736Z,99487.47
2023-05-05T10:51:30.945Z,99486.63
2023-05-05T10:54:15.264Z,99491.78
2023-05-05T10:56:42.536Z,99486.84
2023-05-05T10:59:38.382Z,99487.66
2023-05-05T11:02:30.216Z,99477.25
2023-05-05T11:05:22.810Z,99472.81
2023-05-05T11:07:51.013Z,99481.88
2023-05-05T11:10:23.531Z,99471.72
2023-05-05T11:13:02.617Z,99467.34
2023-05-05T11:15:30.392Z,99473.94
2023-05-05T11:17:58.556Z,99465.47
2023-05-05T11:20:40.912Z,99465.81
2023-05-05T11:23:08.232Z,99462.78
2023-05-05T11:25:38.746Z,99464.66
2023-05-05T11:28:18.707Z,99461.88
2023-05-05T11:30:54.990Z,99468.31
2023-05-05T11:33:32.218Z,99462.72
2023-05-05T11:36:07.136Z,99464.78
2023-05-05T11:38:59.463Z,99456.72
2023-05-05T11:41:32.785Z,99460.19
2023-05-05T11:44:16.194Z,99453.28
2023-05-05T11:46:52.665Z,99456.25
2023-05-05T11:49:35.549Z,99453.94
2023-05-05T11:52:10.158Z,99442.63
2023-05-05T11:54:42.085Z,99449.09
2023-05-05T11:57:09.801Z,99453.75
2023-05-05T11:59:51.350Z,99454.84
2023-05-05T12:02:19.147Z,99450.16
2023-05-05T12:04:46.911Z,99458.03
2023-05-05T12:07:18.220Z,99466.75
2023-05-05T12:09:46.620Z,99456.84
2023-05-05T12:12:14.534Z,99459.81
2023-05-05T12:14:51.422Z,99464.16
2023-05-05T12:17:22.343Z,99462.44
2023-05-05T12:19:51.474Z,99463.50
2023-05-05T12:22:25.897Z,99461.53
2023-05-05T12:25:02.685Z,99465.06
2023-05-05T12:27:30.066Z,99459.75
2023-05-05T12:30:10.840Z,99464.34
2023-05-05T12:32:38.624Z,99461.47
2023-05-05T12:35:07.464Z,99467.03
2023-05-05T12:37:34.560Z,99471.41
2023-05-05T12:40:02.134Z,99470.09
2023-05-05T12:42:29.475Z,99472.84
2023-05-05T12:44:57.203Z,99474.34
2023-05-05T12:47:31.460Z,99479.53
2023-05-05T12:50:00.321Z,99471.91
2023-05-05T12:52:43.766Z,99479.50
2023-05-05T12:55:11.061Z,99482.84
2023-05-05T12:57:38.923Z,99485.50
2023-05-05T13:00:24.608Z,99481.25
2023-05-05T13:02:52.801Z,99488.97
2023-05-05T13:05:31.109Z,99496.69
2023-05-05T13:07:58.595Z,99512.00
2023-05-05T13:10:26.722Z,99514.25
2023-05-05T13:13:00.216Z,99519.13
2023-05-05T13:15:27.646Z,99526.38
2023-05-05T13:18:01.620Z,99524.47
2023-05-05T13:20:28.901Z,99520.19
2023-05-05T13:22:56.991Z,99518.91
2023-05-05T13:25:24.551Z,99533.22
2023-05-05T13:27:51.851Z,99533.94
2023-05-05T13:30:20.418Z,99540.09
2023-05-05T13:32:48.193Z,99541.16
2023-05-05T13:35:16.808Z,99538.91
2023-05-05T13:37:45.707Z,99536.44
2023-05-05T13:40:13.884Z,99536.06
2023-05-05T13:42:41.176Z,99541.13
2023-05-05T13:45:09.149Z,99545.97
2023-05-05T13:47:36.877Z,99538.28
2023-05-05T13:50:04.354Z,99546.09
2023-05-05T13:52:32.992Z,99550.56
2023-05-05T13:55:00.772Z,99552.34
2023-05-05T13:57:28.117Z,99563.69
2023-05-05T13:59:55.098Z,99555.13
2023-05-05T14:02:22.625Z,99553.47
2023-05-05T14:04:49.776Z,99561.66
2023-05-05T14:07:17.116Z,99566.25
2023-05-05T14:09:44.185Z,99562.47
2023-05-05T14:12:12.017Z,99568.53
2023-05-05T14:14:40.205Z,99564.53
2023-05-05T14:17:07.294Z,99563.22
2023-05-05T14:19:34.538Z,99570.09
2023-05-05T14:22:01.708Z,99571.75
2023-05-05T14:24:29.340Z,99571.50
2023-05-05T14:26:56.542Z,99574.22
2023-05-05T14:29:24.187Z,99575.28
2023-05-05T14:31:52.355Z,99571.75
2023-05-05T14:34:19.876Z,99582.88
2023-05-05T14:36:47.315Z,99573.28
2023-05-05T14:39:14.696Z,99575.63
2023-05-05T14:41:41.779Z,99573.13
2023-05-05T14:44:09.071Z,99567.09
2023-05-05T14:46:36.486Z,99570.03
2023-05-05T14:49:03.942Z,99561.28
2023-05-05T14:51:32.166Z,99575.50
2023-05-05T14:53:59.632Z,99574.66
2023-05-05T14:56:28.062Z,99570.50
2023-05-05T14:58:55.201Z,99575.38
2023-05-05T15:01:24.476Z,99581.63
2023-05-05T15:03:53.680Z,99571.59
2023-05-05T15:06:21.597Z,99574.31
2023-05-05T15:08:48.882Z,99578.91
2023-05-05T15:11:16.168Z,99580.34
2023-05-05T15:13:43.132Z,99580.09
2023-05-05T15:16:10.794Z,99588.03
2023-05-05T15:18:38.326Z,99583.41
2023-05-05T15:21:05.602Z,99584.47
2023-05-05T15:23:32.671Z,99587.78
2023-05-05T15:25:59.998Z,99586.72
2023-05-05T15:28:27.518Z,99589.25
2023-05-05T15:30:54.786Z,99590.66
2023-05-05T15:33:22.179Z,99590.44
2023-05-05T15:35:49.539Z,99590.19
2023-05-05T15:38:16.866Z,99583.94
2023-05-05T15:40:44.379Z,99587.47
2023-05-05T15:43:12.061Z,99587.47
2023-05-05T15:45:40.942Z,99578.25
2023-05-05T15:48:08.310Z,99578.25
2023-05-05T15:50:35.936Z,99578.25
2023-05-05T15:53:05.742Z,99574.47
2023-05-05T15:55:33.155Z,99582.88
2023-05-05T15:58:01.123Z,99581.22
2023-05-05T16:00:28.153Z,99580.38
2023-05-05T16:02:55.778Z,99582.03
2023-05-05T16:05:23.237Z,99570.56
2023-05-05T16:07:51.733Z,99576.59
2023-05-05T16:10:20.564Z,99574.09
2023-05-05T16:12:48.134Z,99575.00
2023-05-05T16:15:15.499Z,99569.91
2023-05-05T16:17:42.719Z,99584.06
2023-05-05T16:20:11.226Z,99581.75
2023-05-05T16:22:38.589Z,99585.28
2023-05-05T16:25:06.679Z,99585.22
2023-05-05T16:27:34.085Z,99581.59
2023-05-05T16:30:01.750Z,99582.34
2023-05-05T16:32:29.116Z,99584.09
2023-05-05T16:34:56.994Z,99583.56
2023-05-05T16:37:24.258Z,99583.38
2023-05-05T16:39:51.729Z,99578.50
2023-05-05T16:42:20.204Z,99582.91
2023-05-05T16:44:47.123Z,99579.47
2023-05-05T16:47:14.502Z,99589.94
2023-05-05T16:49:41.704Z,99580.56
2023-05-05T16:52:08.774Z,99595.19
2023-05-05T16:54:35.930Z,99585.38
2023-05-05T16:57:03.832Z,99592.47
2023-05-05T16:59:31.685Z,99596.25
2023-05-05T17:01:59.264Z,99591.72
2023-05-05T17:04:26.665Z,99591.16
2023-05-05T17:06:55.032Z,99598.56
2023-05-05T17:09:24.733Z,99593.78
2023-05-05T17:11:52.506Z,99606.50
2023-05-05T17:14:19.971Z,99611.94
2023-05-05T17:16:47.461Z,99618.88
2023-05-05T17:19:14.687Z,99614.09
2023-05-05T17:21:42.937Z,99612.91
2023-05-05T17:24:10.305Z,99610.19
2023-05-05T17:26:38.574Z,99604.31
2023-05-05T17:29:05.599Z,99599.25
2023-05-05T17:31:32.729Z,99609.06
2023-05-05T17:34:00.406Z,99611.56
2023-05-05T17:36:27.476Z,99612.00
2023-05-05T17:38:54.550Z,99616.59
2023-05-05T17:41:21.808Z,99604.69
2023-05-05T17:43:49.134Z,99610.94
2023-05-05T17:46:16.551Z,99612.59
2023-05-05T17:48:44.022Z,99610.94
2023-05-05T17:51:11.759Z,99612.00
2023-05-05T17:53:39.372Z,99607.84
2023-05-05T17:56:08.717Z,99611.22
2023-05-05T17:58:36.535Z,99603.97
2023-05-05T18:01:04.107Z,99605.69
2023-05-05T18:03:31.686Z,99611.13
2023-05-05T18:05:58.767Z,99604.72
2023-05-05T18:08:26.659Z,99603.94
2023-05-05T18:10:54.214Z,99605.25
2023-05-05T18:13:21.698Z,99607.13
2023-05-05T18:15:49.398Z,99601.50
2023-05-05T18:18:16.457Z,99599.69
2023-05-05T18:20:43.781Z,99596.59
2023-05-05T18:23:11.060Z,99599.28
2023-05-05T18:25:38.188Z,99596.81
2023-05-05T18:28:05.303Z,99595.75
2023-05-05T18:30:32.735Z,99596.13
2023-05-05T18:33:00.235Z,99594.88
2023-05-05T18:35:28.482Z,99599.84
2023-05-05T18:37:55.571Z,99591.72
2023-05-05T18:40:22.554Z,99603.19
2023-05-05T18:42:49.988Z,99605.47
2023-05-05T18:45:17.100Z,99612.56
2023-05-05T18:47:44.335Z,99611.50
2023-05-05T18:50:12.543Z,99607.75
2023-05-05T18:52:39.544Z,99601.50
2023-05-05T18:55:07.569Z,99596.47
2023-05-05T18:57:35.170Z,99602.31
2023-05-05T19:00:02.203Z,99601.72
2023-05-05T19:02:29.282Z,99601.28
2023-05-05T19:04:56.827Z,99603.22
2023-05-05T19:07:34.235Z,99597.19
2023-05-05T19:10:03.149Z,99589.50
2023-05-05T19:12:30.699Z,99585.53
2023-05-05T19:14:57.713Z,99588.25
2023-05-05T19:17:25.222Z,99587.41
2023-05-05T19:19:52.652Z,99580.13
2023-05-05T19:22:22.751Z,99585.31
2023-05-05T19:24:49.967Z,99584.28
2023-05-05T19:27:17.203Z,99591.16
2023-05-05T19:29:44.998Z,99592.00
2023-05-05T19:32:12.624Z,99595.09
2023-05-05T19:34:42.075Z,99593.00
2023-05-05T19:37:09.666Z,99595.09
2023-05-05T19:39:37.446Z,99593.44
2023-05-05T19:42:04.605Z,99588.84
2023-05-05T19:44:32.034Z,99596.97
2023-05-05T19:46:59.003Z,99584.50
2023-05-05T19:49:26.419Z,99588.84
2023-05-05T19:51:54.098Z,99585.16
2023-05-05T19:54:21.364Z,99585.38
2023-05-05T19:56:49.129Z,99584.53
2023-05-05T19:59:16.855Z,99578.28
2023-05-05T20:01:43.876Z,99580.38
2023-05-05T20:04:11.239Z,99580.00
2023-05-05T20:06:38.604Z,99581.88
2023-05-05T20:09:06.114Z,99565.22
2023-05-05T20:11:33.458Z,99578.19
2023-05-05T20:14:00.720Z,99580.72
2023-05-05T20:16:28.126Z,99570.31
2023-05-05T20:18:55.669Z,99568.44
2023-05-05T20:21:23.050Z,99576.16
2023-05-05T20:23:50.576Z,99574.06
2023-05-05T20:26:18.622Z,99565.53
2023-05-05T20:28:45.961Z,99566.19
2023-05-05T20:31:13.993Z,99567.25
2023-05-05T20:33:41.100Z,99570.16
2023-05-05T20:36:08.606Z,99571.66
2023-05-05T20:38:35.642Z,99569.38
2023-05-05T20:41:03.380Z,99569.16
2023-05-05T20:43:31.109Z,99573.53
2023-05-05T20:45:58.643Z,99570.38
2023-05-05T20:48:25.876Z,99572.88
2023-05-05T20:50:53.528Z,99574.31
2023-05-05T20:53:24.314Z,99576.63
2023-05-05T20:55:51.652Z,99575.38
2023-05-05T20:58:19.085Z,99576.03
2023-05-05T21:00:46.249Z,99571.44
2023-05-05T21:03:13.860Z,99576.19
2023-05-05T21:05:41.185Z,99571.66
2023-05-05T21:08:08.390Z,99580.84
2023-05-05T21:10:36.185Z,99576.47
2023-05-05T21:13:03.620Z,99580.44
2023-05-05T21:15:31.553Z,99584.19
2023-05-05T21:17:59.070Z,99593.34
2023-05-05T21:20:26.697Z,99585.66
2023-05-05T21:22:53.722Z,99582.53
2023-05-05T21:25:21.736Z,99590.88
2023-05-05T21:27:49.010Z,99591.47
2023-05-05T21:30:16.645Z,99583.56
2023-05-05T21:32:44.321Z,99581.91
2023-05-05T21:35:11.548Z,99579.00
2023-05-05T21:37:39.561Z,99572.56
2023-05-05T21:40:10.506Z,99572.75
2023-05-05T21:42:37.955Z,99574.44
2023-05-05T21:45:05.328Z,99576.91
2023-05-05T21:47:32.453Z,99570.47
2023-05-05T21:49:59.520Z,99574.63
2023-05-05T21:52:27.160Z,99577.13
2023-05-05T21:54:54.497Z,99576.50
2023-05-05T21:57:21.585Z,99579.81
2023-05-05T21:59:48.682Z,99584.63
2023-05-05T22:02:15.996Z,99587.13
2023-05-05T22:10:16.548Z,99579.19
2023-05-05T22:12:43.661Z,99591.47
2023-05-05T22:15:11.757Z,99585.88
2023-05-05T22:17:39.370Z,99585.88
2023-05-05T22:20:09.012Z,99582.16
2023-05-05T22:22:36.814Z,99589.81
2023-05-05T22:25:05.095Z,99586.94
2023-05-05T22:27:32.770Z,99594.63
2023-05-05T22:30:00.487Z,99583.19
2023-05-05T22:32:27.854Z,99584.00
2023-05-05T22:34:55.118Z,99579.88
2023-05-05T22:37:23.194Z,99585.91
2023-05-05T22:39:50.413Z,99575.47
2023-05-05T22:42:18.098Z,99586.50
2023-05-05T22:44:45.138Z,99589.22
2023-05-05T22:47:13.096Z,99603.34
2023-05-05T22:49:40.224Z,99601.91
2023-05-05T22:52:08.356Z,99597.53
2023-05-05T22:54:35.470Z,99606.28
2023-05-05T22:57:03.834Z,99602.72
2023-05-05T22:59:30.888Z,99611.47
2023-05-05T23:01:57.991Z,99608.31
2023-05-05T23:04:25.299Z,99613.31
2023-05-05T23:06:52.771Z,99612.50
2023-05-05T23:09:19.770Z,99595.66
2023-05-05T23:11:46.858Z,99602.28
2023-05-05T23:14:14.035Z,99589.81
2023-05-05T23:16:41.218Z,99599.34
2023-05-05T23:19:09.094Z,99587.28
2023-05-05T23:21:45.445Z,99596.06
2023-05-05T23:24:20.185Z,99590.00
2023-05-05T23:26:47.652Z,99590.00
2023-05-05T23:29:14.645Z,99590.81
2023-05-05T23:31:42.232Z,99599.34
2023-05-05T23:34:09.485Z,99593.53
2023-05-05T23:36:36.525Z,99607.72
2023-05-05T23:39:04.204Z,99599.38
2023-05-05T23:41:31.367Z,99604.16
2023-05-05T23:43:58.505Z,99602.09
2023-05-05T23:46:26.264Z,99604.63
2023-05-05T23:48:54.611Z,99599.19
2023-05-05T23:51:21.940Z,99608.31
2023-05-05T23:53:49.292Z,99608.81
2023-05-05T23:56:16.439Z,99606.53
2023-05-05T23:58:44.112Z,99622.19
